sensor_id;sensor_type;location;lat;lon;timestamp;temperature;humidity
9861;DHT22;4969;52.304;4.968;2023-05-07T00:00:15;14.45;91.81
9861;DHT22;4969;52.304;4.968;2023-05-07T00:02:44;14.38;91.77
9861;DHT22;4969;52.304;4.968;2023-05-07T00:05:11;14.34;91.80
9861;DHT22;4969;52.304;4.968;2023-05-07T00:07:37;14.33;91.94
9861;DHT22;4969;52.304;4.968;2023-05-07T00:10:05;14.27;91.91
9861;DHT22;4969;52.304;4.968;2023-05-07T00:12:32;14.27;91.96
9861;DHT22;4969;52.304;4.968;2023-05-07T00:14:59;14.24;91.94
9861;DHT22;4969;52.304;4.968;2023-05-07T00:17:27;14.21;91.99
9861;DHT22;4969;52.304;4.968;2023-05-07T00:19:53;14.20;91.96
9861;DHT22;4969;52.304;4.968;2023-05-07T00:22:20;14.14;91.98
9861;DHT22;4969;52.304;4.968;2023-05-07T00:24:47;14.12;91.88
9861;DHT22;4969;52.304;4.968;2023-05-07T00:27:13;14.09;91.94
9861;DHT22;4969;52.304;4.968;2023-05-07T00:29:40;14.03;91.87
9861;DHT22;4969;52.304;4.968;2023-05-07T00:32:06;14.00;91.96
9861;DHT22;4969;52.304;4.968;2023-05-07T00:34:35;13.96;92.02
9861;DHT22;4969;52.304;4.968;2023-05-07T00:37:02;13.95;92.05
9861;DHT22;4969;52.304;4.968;2023-05-07T00:39:28;13.93;92.04
9861;DHT22;4969;52.304;4.968;2023-05-07T00:41:55;13.89;91.98
9861;DHT22;4969;52.304;4.968;2023-05-07T00:44:22;13.85;91.95
9861;DHT22;4969;52.304;4.968;2023-05-07T00:46:48;13.85;92.14
9861;DHT22;4969;52.304;4.968;2023-05-07T00:49:15;13.85;92.16
9861;DHT22;4969;52.304;4.968;2023-05-07T00:51:43;13.86;92.38
9861;DHT22;4969;52.304;4.968;2023-05-07T00:54:11;13.86;92.41
9861;DHT22;4969;52.304;4.968;2023-05-07T00:56:37;13.86;92.40
9861;DHT22;4969;52.304;4.968;2023-05-07T00:59:05;13.88;92.48
9861;DHT22;4969;52.304;4.968;2023-05-07T01:01:31;13.86;92.49
9861;DHT22;4969;52.304;4.968;2023-05-07T01:03:58;13.89;92.65
9861;DHT22;4969;52.304;4.968;2023-05-07T01:06:25;13.92;92.71
9861;DHT22;4969;52.304;4.968;2023-05-07T01:08:54;13.90;92.75
9861;DHT22;4969;52.304;4.968;2023-05-07T01:11:22;13.95;92.80
9861;DHT22;4969;52.304;4.968;2023-05-07T01:13:50;13.97;92.77
9861;DHT22;4969;52.304;4.968;2023-05-07T01:16:17;13.99;92.80
9861;DHT22;4969;52.304;4.968;2023-05-07T01:18:44;14.00;92.81
9861;DHT22;4969;52.304;4.968;2023-05-07T01:21:15;14.02;92.85
9861;DHT22;4969;52.304;4.968;2023-05-07T01:23:44;14.02;92.91
9861;DHT22;4969;52.304;4.968;2023-05-07T01:26:11;14.02;92.90
9861;DHT22;4969;52.304;4.968;2023-05-07T01:28:37;14.03;92.90
9861;DHT22;4969;52.304;4.968;2023-05-07T01:31:04;14.05;92.95
9861;DHT22;4969;52.304;4.968;2023-05-07T01:33:33;14.03;92.89
9861;DHT22;4969;52.304;4.968;2023-05-07T01:36:01;14.00;92.88
9861;DHT22;4969;52.304;4.968;2023-05-07T01:38:31;14.02;92.85
9861;DHT22;4969;52.304;4.968;2023-05-07T01:41:00;14.03;92.94
9861;DHT22;4969;52.304;4.968;2023-05-07T01:43:26;14.00;92.94
9861;DHT22;4969;52.304;4.968;2023-05-07T01:45:53;13.99;92.97
9861;DHT22;4969;52.304;4.968;2023-05-07T01:48:20;13.96;92.98
9861;DHT22;4969;52.304;4.968;2023-05-07T01:50:47;14.00;92.94
9861;DHT22;4969;52.304;4.968;2023-05-07T01:53:14;13.99;93.02
9861;DHT22;4969;52.304;4.968;2023-05-07T01:55:41;13.97;93.03
9861;DHT22;4969;52.304;4.968;2023-05-07T01:58:09;13.96;93.09
9861;DHT22;4969;52.304;4.968;2023-05-07T02:00:36;13.97;93.08
9861;DHT22;4969;52.304;4.968;2023-05-07T02:03:02;14.05;93.12
9861;DHT22;4969;52.304;4.968;2023-05-07T02:05:29;14.06;93.14
9861;DHT22;4969;52.304;4.968;2023-05-07T02:07:56;14.06;93.09
9861;DHT22;4969;52.304;4.968;2023-05-07T02:10:22;14.07;93.11
9861;DHT22;4969;52.304;4.968;2023-05-07T02:12:49;14.09;93.07
9861;DHT22;4969;52.304;4.968;2023-05-07T02:15:17;14.09;93.04
9861;DHT22;4969;52.304;4.968;2023-05-07T02:17:58;14.09;93.03
9861;DHT22;4969;52.304;4.968;2023-05-07T02:20:25;14.06;93.02
9861;DHT22;4969;52.304;4.968;2023-05-07T02:22:52;14.06;93.07
9861;DHT22;4969;52.304;4.968;2023-05-07T02:25:18;14.07;93.06
9861;DHT22;4969;52.304;4.968;2023-05-07T02:27:45;14.06;92.94
9861;DHT22;4969;52.304;4.968;2023-05-07T02:30:12;14.05;92.94
9861;DHT22;4969;52.304;4.968;2023-05-07T02:32:40;14.06;92.91
9861;DHT22;4969;52.304;4.968;2023-05-07T02:35:07;14.06;92.88
9861;DHT22;4969;52.304;4.968;2023-05-07T02:37:33;14.05;92.81
9861;DHT22;4969;52.304;4.968;2023-05-07T02:40:00;14.06;92.84
9861;DHT22;4969;52.304;4.968;2023-05-07T02:42:28;14.05;92.78
9861;DHT22;4969;52.304;4.968;2023-05-07T02:44:55;14.06;92.79
9861;DHT22;4969;52.304;4.968;2023-05-07T02:47:21;14.06;92.79
9861;DHT22;4969;52.304;4.968;2023-05-07T02:49:49;14.06;92.66
9861;DHT22;4969;52.304;4.968;2023-05-07T02:52:16;14.09;92.66
9861;DHT22;4969;52.304;4.968;2023-05-07T02:54:42;14.10;92.56
9861;DHT22;4969;52.304;4.968;2023-05-07T02:57:09;14.09;92.50
9861;DHT22;4969;52.304;4.968;2023-05-07T02:59:35;14.09;92.60
9861;DHT22;4969;52.304;4.968;2023-05-07T03:02:02;14.12;92.53
9861;DHT22;4969;52.304;4.968;2023-05-07T03:04:28;14.10;92.38
9861;DHT22;4969;52.304;4.968;2023-05-07T03:06:56;14.12;92.26
9861;DHT22;4969;52.304;4.968;2023-05-07T03:09:23;14.13;92.26
9861;DHT22;4969;52.304;4.968;2023-05-07T03:11:50;14.10;92.23
9861;DHT22;4969;52.304;4.968;2023-05-07T03:14:16;14.12;92.00
9861;DHT22;4969;52.304;4.968;2023-05-07T03:16:43;14.13;91.94
9861;DHT22;4969;52.304;4.968;2023-05-07T03:19:09;14.10;91.95
9861;DHT22;4969;52.304;4.968;2023-05-07T03:21:36;14.07;91.88
9861;DHT22;4969;52.304;4.968;2023-05-07T03:24:04;14.10;91.84
9861;DHT22;4969;52.304;4.968;2023-05-07T03:26:31;14.09;91.70
9861;DHT22;4969;52.304;4.968;2023-05-07T03:28:58;14.07;91.72
9861;DHT22;4969;52.304;4.968;2023-05-07T03:31:24;14.06;91.64
9861;DHT22;4969;52.304;4.968;2023-05-07T03:33:52;13.99;91.67
9861;DHT22;4969;52.304;4.968;2023-05-07T03:36:18;14.06;91.66
9861;DHT22;4969;52.304;4.968;2023-05-07T03:38:45;14.02;91.64
9861;DHT22;4969;52.304;4.968;2023-05-07T03:41:13;14.03;91.62
9861;DHT22;4969;52.304;4.968;2023-05-07T03:43:40;14.00;91.68
9861;DHT22;4969;52.304;4.968;2023-05-07T03:46:06;14.02;91.67
9861;DHT22;4969;52.304;4.968;2023-05-07T03:48:33;14.03;91.74
9861;DHT22;4969;52.304;4.968;2023-05-07T03:51:00;14.09;91.86
9861;DHT22;4969;52.304;4.968;2023-05-07T03:53:26;14.06;91.66
9861;DHT22;4969;52.304;4.968;2023-05-07T03:55:53;14.05;91.57
9861;DHT22;4969;52.304;4.968;2023-05-07T03:58:21;14.02;91.60
9861;DHT22;4969;52.304;4.968;2023-05-07T04:00:47;14.05;91.84
9861;DHT22;4969;52.304;4.968;2023-05-07T04:03:15;14.00;91.95
9861;DHT22;4969;52.304;4.968;2023-05-07T04:05:41;14.00;91.95
9861;DHT22;4969;52.304;4.968;2023-05-07T04:08:08;14.00;92.03
9861;DHT22;4969;52.304;4.968;2023-05-07T04:10:34;13.96;92.11
9861;DHT22;4969;52.304;4.968;2023-05-07T04:13:01;13.99;92.19
9861;DHT22;4969;52.304;4.968;2023-05-07T04:15:29;13.99;92.17
9861;DHT22;4969;52.304;4.968;2023-05-07T04:17:55;14.00;92.23
9861;DHT22;4969;52.304;4.968;2023-05-07T04:20:22;13.97;92.17
9861;DHT22;4969;52.304;4.968;2023-05-07T04:22:49;13.99;92.19
9861;DHT22;4969;52.304;4.968;2023-05-07T04:25:16;14.00;92.27
9861;DHT22;4969;52.304;4.968;2023-05-07T04:27:42;14.02;92.23
9861;DHT22;4969;52.304;4.968;2023-05-07T04:30:10;13.99;92.23
9861;DHT22;4969;52.304;4.968;2023-05-07T04:32:38;14.06;92.25
9861;DHT22;4969;52.304;4.968;2023-05-07T04:35:05;14.07;92.33
9861;DHT22;4969;52.304;4.968;2023-05-07T04:37:32;14.07;92.30
9861;DHT22;4969;52.304;4.968;2023-05-07T04:39:58;14.07;92.28
9861;DHT22;4969;52.304;4.968;2023-05-07T04:42:25;14.07;92.27
9861;DHT22;4969;52.304;4.968;2023-05-07T04:44:53;14.07;92.33
9861;DHT22;4969;52.304;4.968;2023-05-07T04:47:20;14.10;92.34
9861;DHT22;4969;52.304;4.968;2023-05-07T04:49:48;14.10;92.31
9861;DHT22;4969;52.304;4.968;2023-05-07T04:52:14;14.12;92.35
9861;DHT22;4969;52.304;4.968;2023-05-07T04:54:42;14.13;92.34
9861;DHT22;4969;52.304;4.968;2023-05-07T04:57:08;14.14;92.31
9861;DHT22;4969;52.304;4.968;2023-05-07T04:59:35;14.16;92.31
9861;DHT22;4969;52.304;4.968;2023-05-07T05:02:01;14.17;92.41
9861;DHT22;4969;52.304;4.968;2023-05-07T05:04:29;14.23;92.47
9861;DHT22;4969;52.304;4.968;2023-05-07T05:06:57;14.24;92.48
9861;DHT22;4969;52.304;4.968;2023-05-07T05:09:24;14.21;92.49
9861;DHT22;4969;52.304;4.968;2023-05-07T05:11:51;14.27;92.53
9861;DHT22;4969;52.304;4.968;2023-05-07T05:14:17;14.28;92.55
9861;DHT22;4969;52.304;4.968;2023-05-07T05:16:44;14.26;92.53
9861;DHT22;4969;52.304;4.968;2023-05-07T05:19:10;14.30;92.62
9861;DHT22;4969;52.304;4.968;2023-05-07T05:21:37;14.27;92.54
9861;DHT22;4969;52.304;4.968;2023-05-07T05:24:05;14.30;92.53
9861;DHT22;4969;52.304;4.968;2023-05-07T05:26:32;14.31;92.48
9861;DHT22;4969;52.304;4.968;2023-05-07T05:28:58;14.33;92.45
9861;DHT22;4969;52.304;4.968;2023-05-07T05:31:25;14.31;92.43
9861;DHT22;4969;52.304;4.968;2023-05-07T05:33:52;14.31;92.37
9861;DHT22;4969;52.304;4.968;2023-05-07T05:36:18;14.33;92.27
9861;DHT22;4969;52.304;4.968;2023-05-07T05:38:45;14.31;92.18
9861;DHT22;4969;52.304;4.968;2023-05-07T05:41:13;14.35;92.17
9861;DHT22;4969;52.304;4.968;2023-05-07T05:43:39;14.35;92.14
9861;DHT22;4969;52.304;4.968;2023-05-07T05:46:06;14.40;92.10
9861;DHT22;4969;52.304;4.968;2023-05-07T05:48:34;14.41;91.96
9861;DHT22;4969;52.304;4.968;2023-05-07T05:51:02;14.45;92.05
9861;DHT22;4969;52.304;4.968;2023-05-07T05:53:29;14.50;91.93
9861;DHT22;4969;52.304;4.968;2023-05-07T05:55:55;14.50;91.78
9861;DHT22;4969;52.304;4.968;2023-05-07T05:58:23;14.57;91.74
9861;DHT22;4969;52.304;4.968;2023-05-07T06:00:50;14.57;91.49
9861;DHT22;4969;52.304;4.968;2023-05-07T06:03:18;14.57;91.45
9861;DHT22;4969;52.304;4.968;2023-05-07T06:05:45;14.58;91.42
9861;DHT22;4969;52.304;4.968;2023-05-07T06:08:11;14.62;91.31
9861;DHT22;4969;52.304;4.968;2023-05-07T06:10:38;14.68;91.30
9861;DHT22;4969;52.304;4.968;2023-05-07T06:13:04;14.81;91.57
9861;DHT22;4969;52.304;4.968;2023-05-07T06:15:32;14.89;91.36
9861;DHT22;4969;52.304;4.968;2023-05-07T06:17:59;14.96;91.44
9861;DHT22;4969;52.304;4.968;2023-05-07T06:20:25;15.10;91.38
9861;DHT22;4969;52.304;4.968;2023-05-07T06:22:52;15.10;90.96
9861;DHT22;4969;52.304;4.968;2023-05-07T06:25:19;15.23;91.02
9861;DHT22;4969;52.304;4.968;2023-05-07T06:27:45;15.28;90.62
9861;DHT22;4969;52.304;4.968;2023-05-07T06:30:12;15.31;90.14
9861;DHT22;4969;52.304;4.968;2023-05-07T06:32:41;15.26;89.83
9861;DHT22;4969;52.304;4.968;2023-05-07T06:35:08;15.20;89.46
9861;DHT22;4969;52.304;4.968;2023-05-07T06:37:35;15.27;89.72
9861;DHT22;4969;52.304;4.968;2023-05-07T06:40:04;15.37;90.11
9861;DHT22;4969;52.304;4.968;2023-05-07T06:42:31;15.44;89.86
9861;DHT22;4969;52.304;4.968;2023-05-07T06:44:57;15.44;89.34
9861;DHT22;4969;52.304;4.968;2023-05-07T06:47:24;15.41;89.06
9861;DHT22;4969;52.304;4.968;2023-05-07T06:49:52;15.47;89.33
9861;DHT22;4969;52.304;4.968;2023-05-07T06:52:18;15.53;89.29
9861;DHT22;4969;52.304;4.968;2023-05-07T06:54:45;15.50;88.87
9861;DHT22;4969;52.304;4.968;2023-05-07T06:57:12;15.44;88.59
9861;DHT22;4969;52.304;4.968;2023-05-07T06:59:38;15.41;88.72
9861;DHT22;4969;52.304;4.968;2023-05-07T07:02:05;15.51;88.71
9861;DHT22;4969;52.304;4.968;2023-05-07T07:04:32;15.47;88.93
9861;DHT22;4969;52.304;4.968;2023-05-07T07:07:00;15.40;89.12
9861;DHT22;4969;52.304;4.968;2023-05-07T07:09:26;15.43;89.36
9861;DHT22;4969;52.304;4.968;2023-05-07T07:11:53;15.44;89.56
9861;DHT22;4969;52.304;4.968;2023-05-07T07:14:19;15.47;89.60
9861;DHT22;4969;52.304;4.968;2023-05-07T07:16:46;15.57;89.81
9861;DHT22;4969;52.304;4.968;2023-05-07T07:19:13;15.57;89.96
9861;DHT22;4969;52.304;4.968;2023-05-07T07:21:40;15.59;89.92
9861;DHT22;4969;52.304;4.968;2023-05-07T07:24:08;15.59;90.07
9861;DHT22;4969;52.304;4.968;2023-05-07T07:26:35;15.62;90.37
9861;DHT22;4969;52.304;4.968;2023-05-07T07:29:01;15.65;90.44
9861;DHT22;4969;52.304;4.968;2023-05-07T07:31:28;15.71;90.69
9861;DHT22;4969;52.304;4.968;2023-05-07T07:33:55;15.69;90.48
9861;DHT22;4969;52.304;4.968;2023-05-07T07:36:22;15.78;90.87
9861;DHT22;4969;52.304;4.968;2023-05-07T07:38:48;15.90;91.34
9861;DHT22;4969;52.304;4.968;2023-05-07T07:41:16;15.99;91.01
9861;DHT22;4969;52.304;4.968;2023-05-07T07:43:43;16.02;90.68
9861;DHT22;4969;52.304;4.968;2023-05-07T07:46:09;16.10;90.83
9861;DHT22;4969;52.304;4.968;2023-05-07T07:48:36;16.17;90.48
9861;DHT22;4969;52.304;4.968;2023-05-07T07:51:02;16.12;90.10
9861;DHT22;4969;52.304;4.968;2023-05-07T07:53:29;16.13;90.01
9861;DHT22;4969;52.304;4.968;2023-05-07T07:55:56;16.31;90.91
9861;DHT22;4969;52.304;4.968;2023-05-07T07:58:24;16.40;90.47
9861;DHT22;4969;52.304;4.968;2023-05-07T08:00:51;16.42;90.28
9861;DHT22;4969;52.304;4.968;2023-05-07T08:03:17;16.47;89.80
9861;DHT22;4969;52.304;4.968;2023-05-07T08:05:44;16.54;89.92
9861;DHT22;4969;52.304;4.968;2023-05-07T08:08:11;16.62;89.74
9861;DHT22;4969;52.304;4.968;2023-05-07T08:10:38;16.55;88.56
9861;DHT22;4969;52.304;4.968;2023-05-07T08:13:05;16.58;88.75
9861;DHT22;4969;52.304;4.968;2023-05-07T08:15:33;16.80;89.30
9861;DHT22;4969;52.304;4.968;2023-05-07T08:18:00;16.93;88.94
9861;DHT22;4969;52.304;4.968;2023-05-07T08:20:27;16.99;88.27
9861;DHT22;4969;52.304;4.968;2023-05-07T08:22:54;17.06;88.08
9861;DHT22;4969;52.304;4.968;2023-05-07T08:25:21;17.24;87.89
9861;DHT22;4969;52.304;4.968;2023-05-07T08:27:48;17.31;86.55
9861;DHT22;4969;52.304;4.968;2023-05-07T08:30:15;17.34;86.43
9861;DHT22;4969;52.304;4.968;2023-05-07T08:32:43;17.48;86.84
9861;DHT22;4969;52.304;4.968;2023-05-07T08:35:09;17.47;85.61
9861;DHT22;4969;52.304;4.968;2023-05-07T08:37:36;17.47;84.96
9861;DHT22;4969;52.304;4.968;2023-05-07T08:40:03;17.45;84.24
9861;DHT22;4969;52.304;4.968;2023-05-07T08:42:31;17.47;84.16
9861;DHT22;4969;52.304;4.968;2023-05-07T08:44:59;17.48;83.32
9861;DHT22;4969;52.304;4.968;2023-05-07T08:47:29;17.45;82.45
9861;DHT22;4969;52.304;4.968;2023-05-07T08:50:00;17.58;83.16
9861;DHT22;4969;52.304;4.968;2023-05-07T08:52:27;17.59;81.77
9861;DHT22;4969;52.304;4.968;2023-05-07T08:54:53;17.65;82.12
9861;DHT22;4969;52.304;4.968;2023-05-07T08:57:20;17.65;82.01
9861;DHT22;4969;52.304;4.968;2023-05-07T08:59:48;17.74;81.83
9861;DHT22;4969;52.304;4.968;2023-05-07T09:02:15;17.83;81.64
9861;DHT22;4969;52.304;4.968;2023-05-07T09:04:43;17.95;82.00
9861;DHT22;4969;52.304;4.968;2023-05-07T09:07:11;18.02;81.97
9861;DHT22;4969;52.304;4.968;2023-05-07T09:09:37;18.00;80.94
9861;DHT22;4969;52.304;4.968;2023-05-07T09:12:04;17.99;80.63
9861;DHT22;4969;52.304;4.968;2023-05-07T09:14:31;18.04;80.49
9861;DHT22;4969;52.304;4.968;2023-05-07T09:16:58;18.06;80.55
9861;DHT22;4969;52.304;4.968;2023-05-07T09:19:25;18.10;79.60
9861;DHT22;4969;52.304;4.968;2023-05-07T09:21:58;18.07;79.38
9861;DHT22;4969;52.304;4.968;2023-05-07T09:24:26;18.17;80.53
9861;DHT22;4969;52.304;4.968;2023-05-07T09:26:53;18.20;79.59
9861;DHT22;4969;52.304;4.968;2023-05-07T09:29:20;18.20;79.09
9861;DHT22;4969;52.304;4.968;2023-05-07T09:31:47;18.30;78.75
9861;DHT22;4969;52.304;4.968;2023-05-07T09:34:14;18.21;78.60
9861;DHT22;4969;52.304;4.968;2023-05-07T09:36:40;18.25;78.68
9861;DHT22;4969;52.304;4.968;2023-05-07T09:39:07;18.31;79.62
9861;DHT22;4969;52.304;4.968;2023-05-07T09:41:43;18.35;78.62
9861;DHT22;4969;52.304;4.968;2023-05-07T09:44:09;18.31;77.88
9861;DHT22;4969;52.304;4.968;2023-05-07T09:46:36;18.33;77.87
9861;DHT22;4969;52.304;4.968;2023-05-07T09:49:06;18.52;77.43
9861;DHT22;4969;52.304;4.968;2023-05-07T09:51:39;18.65;77.02
9861;DHT22;4969;52.304;4.968;2023-05-07T09:54:07;18.79;77.20
9861;DHT22;4969;52.304;4.968;2023-05-07T09:56:35;18.83;75.60
9861;DHT22;4969;52.304;4.968;2023-05-07T09:59:03;18.95;76.33
9861;DHT22;4969;52.304;4.968;2023-05-07T10:01:31;18.95;75.01
9861;DHT22;4969;52.304;4.968;2023-05-07T10:03:58;18.89;75.28
9861;DHT22;4969;52.304;4.968;2023-05-07T10:06:25;18.80;74.42
9861;DHT22;4969;52.304;4.968;2023-05-07T10:08:52;18.86;75.99
9861;DHT22;4969;52.304;4.968;2023-05-07T10:11:19;18.93;75.64
9861;DHT22;4969;52.304;4.968;2023-05-07T10:13:48;19.03;75.46
9861;DHT22;4969;52.304;4.968;2023-05-07T10:16:15;19.11;74.47
9861;DHT22;4969;52.304;4.968;2023-05-07T10:18:42;19.23;74.71
9861;DHT22;4969;52.304;4.968;2023-05-07T10:21:13;19.26;73.93
9861;DHT22;4969;52.304;4.968;2023-05-07T10:23:41;19.40;74.83
9861;DHT22;4969;52.304;4.968;2023-05-07T10:26:12;19.51;74.96
9861;DHT22;4969;52.304;4.968;2023-05-07T10:28:42;19.61;74.55
9861;DHT22;4969;52.304;4.968;2023-05-07T10:31:27;19.76;74.15
9861;DHT22;4969;52.304;4.968;2023-05-07T10:33:59;19.92;72.55
9861;DHT22;4969;52.304;4.968;2023-05-07T10:36:27;20.05;71.74
9861;DHT22;4969;52.304;4.968;2023-05-07T10:38:53;20.14;71.19
9861;DHT22;4969;52.304;4.968;2023-05-07T10:41:21;20.05;70.83
9861;DHT22;4969;52.304;4.968;2023-05-07T10:43:47;20.05;70.86
9861;DHT22;4969;52.304;4.968;2023-05-07T10:46:17;20.03;70.87
9861;DHT22;4969;52.304;4.968;2023-05-07T10:49:09;20.10;70.58
9861;DHT22;4969;52.304;4.968;2023-05-07T10:51:37;20.27;71.53
9861;DHT22;4969;52.304;4.968;2023-05-07T10:54:23;20.37;70.16
9861;DHT22;4969;52.304;4.968;2023-05-07T10:56:52;20.28;70.35
9861;DHT22;4969;52.304;4.968;2023-05-07T10:59:33;20.34;69.70
9861;DHT22;4969;52.304;4.968;2023-05-07T11:02:07;20.37;69.56
9861;DHT22;4969;52.304;4.968;2023-05-07T11:04:36;20.54;68.86
9861;DHT22;4969;52.304;4.968;2023-05-07T11:07:23;20.67;70.67
9861;DHT22;4969;52.304;4.968;2023-05-07T11:09:58;20.67;68.47
9861;DHT22;4969;52.304;4.968;2023-05-07T11:12:54;20.83;68.07
9861;DHT22;4969;52.304;4.968;2023-05-07T11:18:15;20.98;67.77
9861;DHT22;4969;52.304;4.968;2023-05-07T11:20:53;20.95;66.33
9861;DHT22;4969;52.304;4.968;2023-05-07T11:26:48;20.82;66.10
9861;DHT22;4969;52.304;4.968;2023-05-07T11:29:16;20.95;66.72
9861;DHT22;4969;52.304;4.968;2023-05-07T11:31:43;20.92;66.87
9861;DHT22;4969;52.304;4.968;2023-05-07T11:34:12;20.96;67.14
9861;DHT22;4969;52.304;4.968;2023-05-07T11:36:42;21.00;67.31
9861;DHT22;4969;52.304;4.968;2023-05-07T11:39:23;21.07;66.19
9861;DHT22;4969;52.304;4.968;2023-05-07T11:41:50;21.07;66.19
9861;DHT22;4969;52.304;4.968;2023-05-07T11:44:16;21.10;66.09
9861;DHT22;4969;52.304;4.968;2023-05-07T11:46:43;21.02;64.42
9861;DHT22;4969;52.304;4.968;2023-05-07T11:49:11;21.09;65.41
9861;DHT22;4969;52.304;4.968;2023-05-07T11:51:38;21.13;65.96
9861;DHT22;4969;52.304;4.968;2023-05-07T11:54:06;21.17;65.84
9861;DHT22;4969;52.304;4.968;2023-05-07T11:56:34;21.24;66.38
9861;DHT22;4969;52.304;4.968;2023-05-07T11:59:01;21.37;66.25
9861;DHT22;4969;52.304;4.968;2023-05-07T12:01:27;21.41;66.42
9861;DHT22;4969;52.304;4.968;2023-05-07T12:03:54;21.33;65.20
9861;DHT22;4969;52.304;4.968;2023-05-07T12:06:22;21.34;64.75
9861;DHT22;4969;52.304;4.968;2023-05-07T12:08:48;21.37;65.50
9861;DHT22;4969;52.304;4.968;2023-05-07T12:11:16;21.48;65.11
9861;DHT22;4969;52.304;4.968;2023-05-07T12:13:47;21.50;64.45
9861;DHT22;4969;52.304;4.968;2023-05-07T12:16:14;21.62;64.43
9861;DHT22;4969;52.304;4.968;2023-05-07T12:18:41;21.66;63.18
9861;DHT22;4969;52.304;4.968;2023-05-07T12:21:08;21.71;64.17
9861;DHT22;4969;52.304;4.968;2023-05-07T12:23:37;21.66;63.51
9861;DHT22;4969;52.304;4.968;2023-05-07T12:26:04;21.66;62.92
9861;DHT22;4969;52.304;4.968;2023-05-07T12:28:31;21.76;62.46
9861;DHT22;4969;52.304;4.968;2023-05-07T12:31:02;21.83;63.03
9861;DHT22;4969;52.304;4.968;2023-05-07T12:33:28;21.78;62.15
9861;DHT22;4969;52.304;4.968;2023-05-07T12:35:56;21.72;61.92
9861;DHT22;4969;52.304;4.968;2023-05-07T12:38:23;21.81;62.37
9861;DHT22;4969;52.304;4.968;2023-05-07T12:40:54;21.76;59.83
9861;DHT22;4969;52.304;4.968;2023-05-07T12:43:24;21.82;60.21
9861;DHT22;4969;52.304;4.968;2023-05-07T12:45:51;21.95;61.15
9861;DHT22;4969;52.304;4.968;2023-05-07T12:48:21;21.92;60.25
9861;DHT22;4969;52.304;4.968;2023-05-07T12:50:49;21.86;60.31
9861;DHT22;4969;52.304;4.968;2023-05-07T12:53:16;21.95;59.50
9861;DHT22;4969;52.304;4.968;2023-05-07T12:55:44;21.96;59.26
9861;DHT22;4969;52.304;4.968;2023-05-07T12:58:16;21.86;58.14
9861;DHT22;4969;52.304;4.968;2023-05-07T13:00:44;21.95;58.11
9861;DHT22;4969;52.304;4.968;2023-05-07T13:03:11;22.05;58.95
9861;DHT22;4969;52.304;4.968;2023-05-07T13:05:38;22.19;58.31
9861;DHT22;4969;52.304;4.968;2023-05-07T13:08:05;22.16;57.91
9861;DHT22;4969;52.304;4.968;2023-05-07T13:10:32;22.21;59.71
9861;DHT22;4969;52.304;4.968;2023-05-07T13:12:59;22.33;60.07
9861;DHT22;4969;52.304;4.968;2023-05-07T13:15:27;22.23;58.90
9861;DHT22;4969;52.304;4.968;2023-05-07T13:17:53;22.19;60.36
9861;DHT22;4969;52.304;4.968;2023-05-07T13:20:20;22.19;60.45
9861;DHT22;4969;52.304;4.968;2023-05-07T13:22:47;22.14;60.38
9861;DHT22;4969;52.304;4.968;2023-05-07T13:25:13;22.03;57.99
9861;DHT22;4969;52.304;4.968;2023-05-07T13:27:40;21.93;58.44
9861;DHT22;4969;52.304;4.968;2023-05-07T13:30:07;21.83;58.32
9861;DHT22;4969;52.304;4.968;2023-05-07T13:32:35;21.81;59.33
9861;DHT22;4969;52.304;4.968;2023-05-07T13:35:02;21.71;60.30
9861;DHT22;4969;52.304;4.968;2023-05-07T13:37:28;21.71;59.04
9861;DHT22;4969;52.304;4.968;2023-05-07T13:39:55;21.69;59.26
9861;DHT22;4969;52.304;4.968;2023-05-07T13:42:21;21.64;58.72
9861;DHT22;4969;52.304;4.968;2023-05-07T13:44:48;21.55;58.16
9861;DHT22;4969;52.304;4.968;2023-05-07T13:47:14;21.47;58.50
9861;DHT22;4969;52.304;4.968;2023-05-07T13:49:42;21.38;59.14
9861;DHT22;4969;52.304;4.968;2023-05-07T13:52:09;21.36;59.79
9861;DHT22;4969;52.304;4.968;2023-05-07T13:54:36;21.37;59.14
9861;DHT22;4969;52.304;4.968;2023-05-07T13:57:02;21.28;59.17
9861;DHT22;4969;52.304;4.968;2023-05-07T13:59:29;21.26;62.15
9861;DHT22;4969;52.304;4.968;2023-05-07T14:01:56;21.18;63.83
9861;DHT22;4969;52.304;4.968;2023-05-07T14:04:22;20.92;64.86
9861;DHT22;4969;52.304;4.968;2023-05-07T14:06:50;21.02;63.85
9861;DHT22;4969;52.304;4.968;2023-05-07T14:09:17;20.98;64.53
9861;DHT22;4969;52.304;4.968;2023-05-07T14:11:43;20.56;64.68
9861;DHT22;4969;52.304;4.968;2023-05-07T14:14:11;20.58;65.10
9861;DHT22;4969;52.304;4.968;2023-05-07T14:16:37;20.78;64.07
9861;DHT22;4969;52.304;4.968;2023-05-07T14:19:04;20.83;64.39
9861;DHT22;4969;52.304;4.968;2023-05-07T14:21:30;20.31;67.77
9861;DHT22;4969;52.304;4.968;2023-05-07T14:23:58;20.26;68.82
9861;DHT22;4969;52.304;4.968;2023-05-07T14:26:25;20.05;70.39
9861;DHT22;4969;52.304;4.968;2023-05-07T14:28:52;19.75;72.94
9861;DHT22;4969;52.304;4.968;2023-05-07T14:31:20;19.75;72.70
9861;DHT22;4969;52.304;4.968;2023-05-07T14:33:47;19.51;73.93
9861;DHT22;4969;52.304;4.968;2023-05-07T14:36:15;19.59;73.51
9861;DHT22;4969;52.304;4.968;2023-05-07T14:38:41;19.52;73.52
9861;DHT22;4969;52.304;4.968;2023-05-07T14:41:09;19.31;75.19
9861;DHT22;4969;52.304;4.968;2023-05-07T14:43:36;19.45;74.48
9861;DHT22;4969;52.304;4.968;2023-05-07T14:46:02;19.41;75.27
9861;DHT22;4969;52.304;4.968;2023-05-07T14:48:29;19.34;74.33
9861;DHT22;4969;52.304;4.968;2023-05-07T14:50:55;19.79;71.76
9861;DHT22;4969;52.304;4.968;2023-05-07T14:53:22;19.71;72.59
9861;DHT22;4969;52.304;4.968;2023-05-07T14:55:49;19.47;74.46
9861;DHT22;4969;52.304;4.968;2023-05-07T14:58:17;18.85;76.97
9861;DHT22;4969;52.304;4.968;2023-05-07T15:00:43;18.50;78.30
9861;DHT22;4969;52.304;4.968;2023-05-07T15:03:10;18.55;78.77
9861;DHT22;4969;52.304;4.968;2023-05-07T15:05:38;18.31;79.72
9861;DHT22;4969;52.304;4.968;2023-05-07T15:08:05;18.18;81.15
9861;DHT22;4969;52.304;4.968;2023-05-07T15:10:35;18.07;82.35
9861;DHT22;4969;52.304;4.968;2023-05-07T15:13:06;18.02;83.08
9861;DHT22;4969;52.304;4.968;2023-05-07T15:15:34;17.97;83.80
9861;DHT22;4969;52.304;4.968;2023-05-07T15:18:00;17.96;84.16
9861;DHT22;4969;52.304;4.968;2023-05-07T15:20:27;17.96;84.17
9861;DHT22;4969;52.304;4.968;2023-05-07T15:22:54;17.87;83.49
9861;DHT22;4969;52.304;4.968;2023-05-07T15:25:21;18.00;83.49
9861;DHT22;4969;52.304;4.968;2023-05-07T15:27:47;17.89;83.72
9861;DHT22;4969;52.304;4.968;2023-05-07T15:30:15;17.78;83.92
9861;DHT22;4969;52.304;4.968;2023-05-07T15:32:43;17.74;84.09
9861;DHT22;4969;52.304;4.968;2023-05-07T15:35:09;17.62;83.86
9861;DHT22;4969;52.304;4.968;2023-05-07T15:37:36;17.59;85.19
9861;DHT22;4969;52.304;4.968;2023-05-07T15:40:03;17.61;84.79
9861;DHT22;4969;52.304;4.968;2023-05-07T15:42:32;17.65;84.89
9861;DHT22;4969;52.304;4.968;2023-05-07T15:44:58;17.68;85.51
9861;DHT22;4969;52.304;4.968;2023-05-07T15:47:26;17.78;85.68
9861;DHT22;4969;52.304;4.968;2023-05-07T15:49:54;17.90;86.32
9861;DHT22;4969;52.304;4.968;2023-05-07T15:52:21;17.96;86.15
9861;DHT22;4969;52.304;4.968;2023-05-07T15:54:47;17.93;85.91
9861;DHT22;4969;52.304;4.968;2023-05-07T15:57:14;18.00;86.48
9861;DHT22;4969;52.304;4.968;2023-05-07T15:59:40;17.93;85.52
9861;DHT22;4969;52.304;4.968;2023-05-07T16:02:07;17.95;86.11
9861;DHT22;4969;52.304;4.968;2023-05-07T16:04:34;18.04;86.72
9861;DHT22;4969;52.304;4.968;2023-05-07T16:07:02;18.04;86.23
9861;DHT22;4969;52.304;4.968;2023-05-07T16:09:28;18.14;86.31